createdAt,value
2023-02-03T00:02:56.360Z,39.19
2023-02-03T00:03:52.430Z,38.44
2023-02-03T00:05:03.412Z,40.50
2023-02-03T00:10:16.093Z,42.67
2023-02-03T00:15:15.342Z,44.00
2023-02-03T00:16:24.430Z,35.44
2023-02-03T00:17:29.358Z,40.69
2023-02-03T00:18:44.483Z,36.87
2023-02-03T00:24:47.202Z,42.06
2023-02-03T00:25:55.461Z,36.88
2023-02-03T00:27:03.000Z,37.25
2023-02-03T00:28:08.501Z,38.13
2023-02-03T00:29:21.777Z,38.31
2023-02-03T00:30:28.356Z,36.69
2023-02-03T00:31:35.132Z,38.19
2023-02-03T00:32:42.045Z,35.69
2023-02-03T00:33:46.076Z,42.67
2023-02-03T00:35:02.980Z,40.94
2023-02-03T00:36:12.050Z,37.13
2023-02-03T00:37:17.379Z,40.88
2023-02-03T00:52:48.233Z,39.31
2023-02-03T00:53:57.061Z,42.19
2023-02-03T00:55:02.921Z,45.47
2023-02-03T00:56:07.402Z,46.31
2023-02-03T00:57:16.630Z,40.00
2023-02-03T00:58:27.184Z,37.44
2023-02-03T00:59:27.636Z,36.06
2023-02-03T01:00:33.314Z,41.13
2023-02-03T01:01:40.347Z,34.69
2023-02-03T01:02:53.219Z,34.00
2023-02-03T01:03:59.074Z,38.69
2023-02-03T01:07:58.774Z,35.81
2023-02-03T01:09:05.825Z,42.47
2023-02-03T01:10:18.527Z,35.56
2023-02-03T01:11:32.169Z,43.56
2023-02-03T01:16:20.648Z,44.47
2023-02-03T01:19:02.870Z,35.81
2023-02-03T01:20:16.935Z,38.75
2023-02-03T01:21:25.003Z,46.60
2023-02-03T01:22:30.947Z,38.75
2023-02-03T01:23:40.991Z,36.19
2023-02-03T01:24:45.088Z,45.56
2023-02-03T01:25:53.599Z,38.19
2023-02-03T01:27:03.011Z,39.88
2023-02-03T01:28:20.570Z,35.50
2023-02-03T01:30:22.267Z,37.88
2023-02-03T01:33:13.824Z,39.75
2023-02-03T01:37:58.358Z,41.69
2023-02-03T01:38:47.590Z,33.81
2023-02-03T01:39:49.753Z,41.13
2023-02-03T01:41:14.246Z,41.87
2023-02-03T01:42:22.964Z,38.81
2023-02-03T01:43:48.850Z,40.67
2023-02-03T01:45:08.508Z,39.06
2023-02-03T01:46:25.454Z,38.73
2023-02-03T01:47:53.354Z,35.00
2023-02-03T01:49:42.781Z,37.93
2023-02-03T01:50:39.057Z,37.50
2023-02-03T01:51:50.034Z,41.81
2023-02-03T01:52:56.119Z,39.69
2023-02-03T01:54:28.657Z,44.19
2023-02-03T01:55:15.740Z,34.25
2023-02-03T01:56:24.029Z,35.73
2023-02-03T01:57:35.406Z,43.31
2023-02-03T01:58:45.926Z,36.19
2023-02-03T01:59:54.750Z,33.69
2023-02-03T02:03:01.472Z,42.53
2023-02-03T02:03:54.085Z,37.00
2023-02-03T02:05:03.957Z,39.87
2023-02-03T02:06:16.125Z,41.87
2023-02-03T02:07:20.030Z,36.31
2023-02-03T02:08:25.048Z,41.00
2023-02-03T02:09:29.868Z,42.94
2023-02-03T02:10:41.220Z,37.00
2023-02-03T02:11:43.149Z,43.00
2023-02-03T02:14:17.617Z,39.75
2023-02-03T02:15:27.215Z,38.50
2023-02-03T02:16:36.891Z,37.44
2023-02-03T02:18:00.528Z,42.00
2023-02-03T02:19:20.069Z,36.73
2023-02-03T02:20:38.677Z,33.94
2023-02-03T02:24:12.858Z,36.81
2023-02-03T02:25:00.977Z,38.81
2023-02-03T02:26:28.649Z,34.88
2023-02-03T02:28:04.391Z,40.75
2023-02-03T02:29:27.366Z,38.25
2023-02-03T02:31:00.623Z,44.33
2023-02-03T02:31:09.344Z,40.50
2023-02-03T02:32:28.538Z,32.80
2023-02-03T02:33:48.623Z,34.75
2023-02-03T02:35:07.772Z,33.63
2023-02-03T02:36:20.835Z,40.94
2023-02-03T02:37:35.440Z,40.44
2023-02-03T02:39:00.137Z,36.38
2023-02-03T02:40:23.904Z,39.00
2023-02-03T02:41:44.494Z,35.94
2023-02-03T02:43:11.407Z,37.56
2023-02-03T02:44:28.583Z,39.63
2023-02-03T02:45:51.447Z,41.19
2023-02-03T02:47:06.816Z,38.56
2023-02-03T02:48:23.916Z,40.33
2023-02-03T02:49:35.296Z,38.88
2023-02-03T02:50:41.252Z,41.44
2023-02-03T02:52:03.934Z,37.25
2023-02-03T02:53:03.344Z,37.00
2023-02-03T02:54:12.379Z,42.94
2023-02-03T03:11:35.531Z,34.25
2023-02-03T03:12:42.818Z,42.62
2023-02-03T03:14:23.916Z,33.75
2023-02-03T03:15:33.210Z,39.81
2023-02-03T03:17:54.244Z,34.88
2023-02-03T03:20:45.813Z,39.80
2023-02-03T03:21:55.589Z,28.53
2023-02-03T03:23:07.939Z,37.06
2023-02-03T03:24:16.667Z,38.19
2023-02-03T03:25:27.768Z,36.81
2023-02-03T03:26:36.382Z,40.47
2023-02-03T03:28:52.014Z,36.50
2023-02-03T03:29:21.311Z,34.87
2023-02-03T03:30:28.625Z,39.00
2023-02-03T03:31:36.267Z,41.00
2023-02-03T03:34:21.271Z,35.94
2023-02-03T03:47:22.737Z,41.69
2023-02-03T03:49:24.591Z,46.75
2023-02-03T03:52:42.356Z,35.19
2023-02-03T03:54:07.011Z,38.38
2023-02-03T03:55:02.487Z,40.53
2023-02-03T03:57:57.411Z,41.31
2023-02-03T03:59:11.408Z,38.75
2023-02-03T04:00:16.616Z,34.06
2023-02-03T04:01:26.464Z,42.62
2023-02-03T04:02:35.181Z,42.69
2023-02-03T04:03:49.392Z,36.13
2023-02-03T04:04:56.591Z,33.06
2023-02-03T04:06:02.722Z,37.81
2023-02-03T04:07:08.783Z,34.50
2023-02-03T04:08:19.785Z,39.40
2023-02-03T04:09:32.899Z,41.63
2023-02-03T04:10:40.460Z,42.20
2023-02-03T04:11:46.047Z,44.88
2023-02-03T04:12:53.166Z,36.69
2023-02-03T04:14:00.184Z,40.44
2023-02-03T04:15:13.519Z,41.06
2023-02-03T04:16:20.677Z,34.44
2023-02-03T04:17:33.320Z,37.69
2023-02-03T04:18:39.134Z,38.13
2023-02-03T04:19:42.741Z,42.13
2023-02-03T04:21:06.964Z,37.13
2023-02-03T04:25:26.464Z,41.00
2023-02-03T04:29:09.251Z,36.13
2023-02-03T04:30:11.949Z,36.75
2023-02-03T04:31:22.827Z,39.56
2023-02-03T04:32:34.012Z,40.19
2023-02-03T04:33:39.952Z,43.87
2023-02-03T04:34:45.462Z,40.75
2023-02-03T04:35:49.611Z,42.88
2023-02-03T04:38:12.836Z,39.00
2023-02-03T04:39:22.469Z,40.00
2023-02-03T04:40:16.391Z,39.75
2023-02-03T04:41:55.836Z,39.31
2023-02-03T04:44:27.637Z,42.25
2023-02-03T04:45:45.257Z,45.07
2023-02-03T04:46:49.316Z,41.44
2023-02-03T04:48:02.326Z,37.25
2023-02-03T04:52:22.392Z,45.27
2023-02-03T05:07:26.303Z,36.50
2023-02-03T05:08:21.677Z,37.25
2023-02-03T05:09:27.848Z,44.38
2023-02-03T05:13:35.067Z,43.06
2023-02-03T05:14:49.688Z,44.88
2023-02-03T05:20:16.330Z,49.19
2023-02-03T05:21:38.931Z,50.63
2023-02-03T05:28:26.655Z,50.12
2023-02-03T05:29:35.060Z,52.13
2023-02-03T05:30:16.309Z,48.56
2023-02-03T05:30:40.750Z,47.69
2023-02-03T05:31:47.883Z,45.75
2023-02-03T05:32:53.539Z,47.38
2023-02-03T05:34:04.834Z,49.19
2023-02-03T05:36:27.755Z,45.12
2023-02-03T05:37:31.716Z,44.13
2023-02-03T05:38:39.953Z,45.19
2023-02-03T05:39:46.957Z,45.69
2023-02-03T05:40:54.610Z,44.00
2023-02-03T05:42:07.316Z,44.50
2023-02-03T05:43:10.537Z,48.31
2023-02-03T05:46:51.516Z,49.69
2023-02-03T05:48:34.281Z,49.94
2023-02-03T05:51:00.834Z,48.56
2023-02-03T05:55:16.862Z,49.25
2023-02-03T05:56:43.740Z,42.94
2023-02-03T05:57:05.257Z,49.31
2023-02-03T05:59:00.610Z,48.40
2023-02-03T06:04:59.308Z,36.63
2023-02-03T06:06:04.715Z,41.25
2023-02-03T06:07:11.850Z,43.47
2023-02-03T06:08:17.973Z,44.63
2023-02-03T06:09:27.285Z,47.20
2023-02-03T10:02:17.627Z,16.44
2023-02-03T10:03:33.186Z,15.94
2023-02-03T10:04:47.594Z,17.06
2023-02-03T10:07:53.523Z,23.06
2023-02-03T10:09:11.019Z,15.56
2023-02-03T10:10:33.172Z,21.62
2023-02-03T10:11:53.816Z,15.63
2023-02-03T10:13:16.979Z,17.56
2023-02-03T10:14:44.049Z,16.25
2023-02-03T10:16:03.495Z,16.87
2023-02-03T10:17:24.596Z,21.20
2023-02-03T10:18:44.723Z,17.69
2023-02-03T10:20:26.200Z,17.25
2023-02-03T10:23:39.511Z,21.06
2023-02-03T10:23:58.911Z,24.87
2023-02-03T10:25:24.331Z,22.00
2023-02-03T10:28:00.253Z,22.56
2023-02-03T10:29:12.192Z,21.56
2023-02-03T10:30:27.443Z,23.31
2023-02-03T10:31:50.044Z,26.94
2023-02-03T10:33:04.680Z,26.94
2023-02-03T10:34:18.722Z,30.73
2023-02-03T10:35:41.551Z,25.50
2023-02-03T10:37:07.691Z,22.13
2023-02-03T10:38:13.656Z,17.87
2023-02-03T10:39:46.047Z,26.69
2023-02-03T10:40:59.693Z,23.06
2023-02-03T10:42:06.353Z,22.62
2023-02-03T10:43:13.951Z,25.12
2023-02-03T10:44:27.257Z,23.69
2023-02-03T10:45:36.867Z,20.69
2023-02-03T10:49:48.472Z,19.12
2023-02-03T10:50:56.781Z,16.00
2023-02-03T10:53:36.160Z,6.81
2023-02-03T10:54:36.745Z,25.25
2023-02-03T10:55:48.538Z,24.06
2023-02-03T10:59:39.738Z,25.19
2023-02-03T11:01:38.256Z,28.50
2023-02-03T11:02:01.907Z,31.44
2023-02-03T11:03:25.756Z,28.20
2023-02-03T11:05:55.920Z,31.69
2023-02-03T11:07:09.340Z,32.50
2023-02-03T11:08:11.830Z,36.56
2023-02-03T11:08:56.077Z,31.00
2023-02-03T11:09:25.175Z,30.20
2023-02-03T11:11:49.193Z,26.56
2023-02-03T11:14:48.421Z,20.50
2023-02-03T11:16:16.621Z,26.31
2023-02-03T11:17:24.939Z,21.12
2023-02-03T11:18:40.368Z,23.06
2023-02-03T11:21:18.826Z,21.69
2023-02-03T11:22:13.607Z,24.63
2023-02-03T11:24:44.571Z,20.19
2023-02-03T11:25:57.118Z,20.00
2023-02-03T11:27:21.000Z,24.00
2023-02-03T11:28:23.638Z,21.00
2023-02-03T11:30:49.060Z,18.00
2023-02-03T11:50:47.028Z,17.06
2023-02-03T11:52:02.785Z,18.87
2023-02-03T11:53:24.167Z,19.81
2023-02-03T11:54:35.086Z,19.44
2023-02-03T11:55:57.067Z,23.19
2023-02-03T11:57:16.795Z,19.12
2023-02-03T11:58:43.503Z,23.00
2023-02-03T12:00:05.052Z,22.62
2023-02-03T12:01:22.151Z,26.31
2023-02-03T12:02:55.106Z,21.87
2023-02-03T12:04:23.544Z,19.31
2023-02-03T12:07:23.005Z,30.69
2023-02-03T12:08:58.593Z,20.62
2023-02-03T12:10:17.203Z,19.12
2023-02-03T12:11:34.581Z,22.19
2023-02-03T12:12:48.808Z,20.50
2023-02-03T12:14:27.250Z,19.81
2023-02-03T12:15:46.268Z,16.62
2023-02-03T12:17:11.610Z,22.73
2023-02-03T12:18:18.739Z,19.75
2023-02-03T12:19:42.070Z,17.69
2023-02-03T12:21:05.812Z,20.60
2023-02-03T12:23:01.491Z,14.25
2023-02-03T12:24:49.078Z,20.56
2023-02-03T12:25:04.786Z,17.69
2023-02-03T12:26:15.218Z,19.12
2023-02-03T12:27:29.364Z,14.25
2023-02-03T12:29:01.590Z,18.12
2023-02-03T12:30:07.842Z,16.87
2023-02-03T12:31:32.110Z,13.25
2023-02-03T12:33:19.377Z,13.81
2023-02-03T12:34:36.197Z,12.31
2023-02-03T12:35:52.189Z,15.94
2023-02-03T12:37:09.753Z,15.19
2023-02-03T12:38:36.166Z,14.94
2023-02-03T12:39:57.039Z,13.00
2023-02-03T12:41:07.266Z,20.31
2023-02-03T12:42:23.713Z,14.63
2023-02-03T12:43:44.647Z,17.81
2023-02-03T12:45:17.271Z,21.94
2023-02-03T12:46:20.217Z,16.12
2023-02-03T12:47:38.052Z,15.00
2023-02-03T12:48:46.015Z,14.13
2023-02-03T12:51:25.598Z,17.69
2023-02-03T12:53:24.639Z,25.25
2023-02-03T12:53:59.701Z,23.44
2023-02-03T12:55:28.615Z,21.06
2023-02-03T12:56:39.966Z,22.19
2023-02-03T12:57:51.743Z,23.87
2023-02-03T13:00:46.270Z,20.62
2023-02-03T13:00:48.859Z,22.19
2023-02-03T13:03:18.519Z,18.12
2023-02-03T13:04:32.711Z,13.62
2023-02-03T13:05:53.150Z,11.31
2023-02-03T13:07:01.486Z,20.69
2023-02-03T13:08:26.602Z,15.00
2023-02-03T13:09:55.164Z,26.31
2023-02-03T13:11:16.198Z,24.87
2023-02-03T13:14:30.840Z,24.31
2023-02-03T13:15:51.837Z,23.12
2023-02-03T13:30:09.924Z,23.62
2023-02-03T13:33:02.604Z,25.00
2023-02-03T13:34:34.690Z,28.62
2023-02-03T13:36:03.028Z,26.94
2023-02-03T13:37:08.599Z,26.69
2023-02-03T13:38:34.687Z,27.31
2023-02-03T13:39:49.061Z,25.25
2023-02-03T13:40:59.732Z,28.12
2023-02-03T13:42:16.562Z,27.62
2023-02-03T13:48:14.947Z,29.00
2023-02-03T16:00:44.835Z,14.25
2023-02-03T16:01:48.146Z,14.25
2023-02-03T16:02:56.459Z,20.06
2023-02-03T16:04:02.172Z,15.63
2023-02-03T16:05:25.823Z,16.06
2023-02-03T16:06:33.474Z,15.50
2023-02-03T16:07:38.969Z,14.50
2023-02-03T16:08:48.147Z,17.31
2023-02-03T16:10:05.088Z,16.62
2023-02-03T16:11:32.715Z,17.00
2023-02-03T16:12:38.359Z,13.50
2023-02-03T16:13:45.954Z,14.38
2023-02-03T16:14:50.150Z,11.31
2023-02-03T16:16:42.416Z,11.75
2023-02-03T16:17:36.909Z,11.19
2023-02-03T16:19:00.603Z,16.50
2023-02-03T16:19:55.075Z,12.19
2023-02-03T16:21:05.191Z,18.69
2023-02-03T16:22:13.692Z,14.25
2023-02-03T16:23:25.966Z,17.06
2023-02-03T16:24:43.823Z,13.81
2023-02-03T16:26:04.996Z,20.12
2023-02-03T16:27:30.420Z,17.44
2023-02-03T16:28:41.357Z,16.44
2023-02-03T16:29:48.852Z,14.94
2023-02-03T16:30:57.496Z,17.19
2023-02-03T16:32:09.360Z,16.25
2023-02-03T16:33:17.689Z,15.63
2023-02-03T16:34:21.593Z,16.00
2023-02-03T16:35:28.952Z,13.81
2023-02-03T16:36:31.826Z,13.06
2023-02-03T16:37:38.826Z,13.44
2023-02-03T16:38:53.668Z,13.81
2023-02-03T16:39:56.417Z,14.44
2023-02-03T16:41:02.131Z,15.00
2023-02-03T16:42:09.317Z,13.75
2023-02-03T16:43:18.902Z,17.12
2023-02-03T16:44:20.895Z,17.00
2023-02-03T16:45:25.405Z,20.94
2023-02-03T16:46:29.908Z,15.56
2023-02-03T16:47:35.403Z,18.69
2023-02-03T16:48:39.543Z,19.87
2023-02-03T16:49:43.479Z,19.00
2023-02-03T16:50:47.689Z,14.87
2023-02-03T16:51:57.121Z,12.75
2023-02-03T16:53:01.181Z,17.00
2023-02-03T16:54:05.245Z,14.81
2023-02-03T16:55:11.272Z,13.00
2023-02-03T16:56:16.834Z,14.87
2023-02-03T16:57:20.789Z,16.12
2023-02-03T16:58:25.701Z,13.06
2023-02-03T16:59:29.766Z,11.19
2023-02-03T17:00:34.999Z,16.31
2023-02-03T17:01:39.108Z,14.44
2023-02-03T17:02:43.269Z,14.87
2023-02-03T17:03:48.903Z,14.50
2023-02-03T17:04:52.791Z,13.56
2023-02-03T17:05:57.651Z,15.13
2023-02-03T17:07:06.267Z,19.12
2023-02-03T17:08:11.761Z,14.13
2023-02-03T17:09:17.156Z,17.44
2023-02-03T17:10:27.917Z,13.00
2023-02-03T17:11:28.337Z,12.94
2023-02-03T17:12:40.018Z,16.00
2023-02-03T17:13:43.083Z,15.50
2023-02-03T17:14:47.107Z,20.00
2023-02-03T17:15:57.004Z,22.94
2023-02-03T17:17:01.282Z,22.87
2023-02-03T17:18:05.665Z,22.56
2023-02-03T17:19:13.541Z,16.06
2023-02-03T17:20:18.060Z,19.75
2023-02-03T17:21:26.954Z,17.62
2023-02-03T17:22:32.441Z,22.50
2023-02-03T17:23:39.136Z,16.00
2023-02-03T17:24:43.348Z,22.56
2023-02-03T17:25:50.667Z,23.25
2023-02-03T17:26:58.051Z,21.94
2023-02-03T17:28:04.277Z,20.88
2023-02-03T17:29:15.785Z,19.31
2023-02-03T17:30:19.703Z,18.19
2023-02-03T17:31:25.427Z,19.00
2023-02-03T17:32:31.399Z,17.44
2023-02-03T17:33:44.648Z,22.56
2023-02-03T17:34:44.633Z,20.37
2023-02-03T17:35:55.715Z,23.73
2023-02-03T17:37:08.345Z,23.87
2023-02-03T17:38:11.267Z,19.50
2023-02-03T17:54:14.436Z,27.37
2023-02-03T17:55:33.183Z,27.37
2023-02-03T17:56:42.065Z,26.50
2023-02-03T17:57:53.001Z,26.00
2023-02-03T17:59:01.080Z,27.94
2023-02-03T18:00:07.012Z,21.50
2023-02-03T18:01:21.068Z,26.50
2023-02-03T18:02:30.353Z,15.13
2023-02-03T18:03:36.061Z,21.12
2023-02-03T18:04:43.083Z,28.31
2023-02-03T18:05:53.713Z,28.19
2023-02-03T18:06:57.965Z,26.75
2023-02-03T18:08:12.350Z,29.25
2023-02-03T18:09:10.638Z,23.87
2023-02-03T18:10:16.575Z,27.69
2023-02-03T18:11:25.127Z,27.75
2023-02-03T18:12:48.462Z,30.20
2023-02-03T18:13:47.540Z,28.25
2023-02-03T18:17:57.563Z,27.44
2023-02-03T18:19:08.374Z,25.56
2023-02-03T18:20:14.204Z,25.88
2023-02-03T18:21:24.175Z,20.12
2023-02-03T18:22:31.791Z,24.81
2023-02-03T18:23:39.247Z,22.44
2023-02-03T18:24:44.186Z,23.25
2023-02-03T18:25:55.814Z,26.12
2023-02-03T18:27:10.300Z,22.50
2023-02-03T18:28:23.921Z,24.81
2023-02-03T18:29:27.603Z,22.25
2023-02-03T18:30:34.364Z,21.69
2023-02-03T18:31:40.097Z,23.19
2023-02-03T18:32:45.636Z,23.69
2023-02-03T18:33:52.809Z,23.33
2023-02-03T18:35:01.857Z,18.12
2023-02-03T18:36:08.380Z,45.67
2023-02-03T18:37:13.271Z,31.07
2023-02-03T18:38:20.993Z,25.20
2023-02-03T18:39:35.672Z,23.75
2023-02-03T18:40:34.152Z,31.69
2023-02-03T18:41:40.060Z,25.94
2023-02-03T18:42:50.494Z,24.63
2023-02-03T18:43:59.284Z,28.44
2023-02-03T18:45:05.473Z,29.44
2023-02-03T18:46:22.891Z,26.00
2023-02-03T18:47:30.046Z,26.06
2023-02-03T18:48:35.202Z,24.56
2023-02-03T18:49:42.680Z,25.56
2023-02-03T18:50:52.486Z,28.25
2023-02-03T18:51:58.041Z,29.47
2023-02-03T18:53:02.226Z,28.40
2023-02-03T18:54:07.856Z,25.00
2023-02-03T18:55:12.016Z,25.88
2023-02-03T18:56:19.089Z,29.19
2023-02-03T18:57:24.737Z,29.25
2023-02-03T18:58:30.459Z,27.50
2023-02-03T18:59:41.797Z,22.75
2023-02-03T19:00:49.102Z,25.81
2023-02-03T19:01:55.864Z,22.44
2023-02-03T19:03:02.480Z,21.87
2023-02-03T19:04:09.743Z,24.44
2023-02-03T19:05:15.176Z,21.75
2023-02-03T19:06:24.396Z,30.37
2023-02-03T19:07:32.188Z,25.81
2023-02-03T19:08:37.698Z,28.56
2023-02-03T19:09:43.164Z,22.62
2023-02-03T19:10:50.952Z,23.81
2023-02-03T19:11:56.698Z,18.81
2023-02-03T19:13:02.001Z,18.56
2023-02-03T19:14:13.733Z,28.47
2023-02-03T19:15:39.435Z,22.13
2023-02-03T19:16:31.774Z,21.87
2023-02-03T19:18:48.788Z,23.44
2023-02-03T19:19:10.548Z,20.56
2023-02-03T19:20:27.579Z,20.69
2023-02-03T19:21:15.371Z,23.31
2023-02-03T19:22:26.565Z,21.81
2023-02-03T19:23:36.631Z,23.87
2023-02-03T19:24:45.493Z,23.62
2023-02-03T19:25:57.682Z,27.06
2023-02-03T19:27:03.769Z,26.12
2023-02-03T19:28:17.605Z,26.31
2023-02-03T19:29:14.262Z,27.00
2023-02-03T19:30:25.329Z,29.00
2023-02-03T19:31:35.404Z,25.50
2023-02-03T19:32:52.460Z,18.00
2023-02-03T19:34:09.569Z,19.81
2023-02-03T19:35:25.444Z,22.87
2023-02-03T19:36:46.526Z,16.06
2023-02-03T19:37:48.491Z,18.75
2023-02-03T19:38:56.823Z,14.75
2023-02-03T19:40:06.540Z,15.50
2023-02-03T19:41:17.920Z,14.44
2023-02-03T19:42:24.002Z,13.81
2023-02-03T19:43:38.321Z,12.56
2023-02-03T19:45:10.215Z,17.56
2023-02-03T19:46:09.565Z,16.81
2023-02-03T19:47:15.734Z,15.40
2023-02-03T19:48:27.656Z,12.94
2023-02-03T19:49:36.108Z,13.25
2023-02-03T19:50:44.169Z,11.31
2023-02-03T19:52:08.811Z,14.19
2023-02-03T19:53:11.545Z,12.56
2023-02-03T19:54:19.038Z,13.38
2023-02-03T19:55:38.228Z,12.50
2023-02-03T19:56:49.676Z,14.44
2023-02-03T19:59:08.234Z,18.12
2023-02-03T20:00:17.237Z,15.94
2023-02-03T20:02:50.254Z,19.25
2023-02-03T20:03:57.720Z,13.50
2023-02-03T20:04:33.132Z,11.94
2023-02-03T20:05:05.101Z,13.00
2023-02-03T20:06:11.656Z,16.37
2023-02-03T20:07:28.340Z,18.81
2023-02-03T20:08:34.590Z,15.00
2023-02-03T20:09:44.875Z,18.06
2023-02-03T20:11:08.002Z,17.87
2023-02-03T20:12:14.129Z,12.44
2023-02-03T20:13:18.574Z,16.25
2023-02-03T20:14:33.077Z,16.19
2023-02-03T20:15:38.074Z,17.69
2023-02-03T20:16:43.974Z,19.62
2023-02-03T20:17:48.654Z,13.69
2023-02-03T20:19:00.797Z,16.69
2023-02-03T20:20:13.586Z,16.50
2023-02-03T20:21:19.659Z,15.06
2023-02-03T20:23:51.409Z,15.81
2023-02-03T20:25:02.175Z,13.94
2023-02-03T20:26:10.745Z,19.50
2023-02-03T20:27:18.236Z,15.44
2023-02-03T20:28:29.349Z,18.31
2023-02-03T20:29:33.826Z,17.00
2023-02-03T20:30:40.054Z,18.44
2023-02-03T20:31:47.719Z,16.62
2023-02-03T20:33:00.280Z,20.00
2023-02-03T20:34:11.078Z,15.13
2023-02-03T20:35:21.568Z,19.31
2023-02-03T20:36:34.239Z,13.13
2023-02-03T20:37:36.951Z,14.69
2023-02-03T20:39:07.540Z,16.25
2023-02-03T20:40:04.386Z,14.69
2023-02-03T20:41:15.997Z,15.44
2023-02-03T20:42:24.077Z,17.12
2023-02-03T20:43:35.757Z,17.12
2023-02-03T20:44:52.236Z,14.94
2023-02-03T20:45:54.400Z,17.56
2023-02-03T20:47:02.822Z,19.75
2023-02-03T20:48:12.856Z,15.25
2023-02-03T20:49:21.477Z,18.81
2023-02-03T20:50:58.105Z,15.94
2023-02-03T20:51:38.195Z,17.12
2023-02-03T20:52:42.352Z,17.06
2023-02-03T20:53:54.887Z,23.12
2023-02-03T20:55:10.735Z,25.75
2023-02-03T20:56:18.368Z,21.06
2023-02-03T20:57:25.339Z,20.19
2023-02-03T20:58:32.735Z,22.25
2023-02-03T20:59:41.707Z,21.94
2023-02-03T21:00:44.294Z,23.00
2023-02-03T21:01:48.761Z,22.37
2023-02-03T21:02:56.376Z,25.87
2023-02-03T21:04:00.394Z,23.81
2023-02-03T21:05:07.421Z,23.87
2023-02-03T21:06:20.459Z,24.37
2023-02-03T21:07:27.227Z,22.56
2023-02-03T21:08:31.281Z,23.87
2023-02-03T21:09:35.284Z,22.06
2023-02-03T21:10:43.979Z,22.00
2023-02-03T21:11:48.355Z,21.87
2023-02-03T21:12:52.856Z,22.80
2023-02-03T21:13:56.937Z,23.38
2023-02-03T21:15:01.913Z,19.31
2023-02-03T21:16:23.600Z,15.19
2023-02-03T21:17:32.249Z,15.75
2023-02-03T21:18:39.287Z,19.87
2023-02-03T21:19:43.310Z,14.87
2023-02-03T21:20:51.311Z,17.00
2023-02-03T21:21:56.295Z,18.94
2023-02-03T21:23:00.402Z,16.69
2023-02-03T21:24:35.318Z,20.44
2023-02-03T21:25:42.052Z,16.75
2023-02-03T21:26:51.036Z,17.37
2023-02-03T21:27:53.640Z,14.87
2023-02-03T21:29:02.989Z,19.37
2023-02-03T21:30:31.405Z,18.47
2023-02-03T21:31:37.603Z,18.94
2023-02-03T21:32:42.032Z,15.94
2023-02-03T21:33:52.496Z,12.37
2023-02-03T21:34:51.859Z,14.94
2023-02-03T21:35:56.005Z,17.37
2023-02-03T21:37:14.841Z,19.94
2023-02-03T21:38:24.178Z,19.25
2023-02-03T21:39:35.039Z,17.12
2023-02-03T21:40:39.551Z,14.50
2023-02-03T21:41:45.142Z,18.37
2023-02-03T21:42:49.101Z,23.62
2023-02-03T21:43:58.612Z,21.07
2023-02-03T21:45:08.581Z,16.81
2023-02-03T21:46:26.538Z,19.00
2023-02-03T21:47:32.529Z,19.94
2023-02-03T21:48:39.169Z,17.56
2023-02-03T21:49:43.246Z,17.31
2023-02-03T21:50:48.743Z,16.62
2023-02-03T21:51:52.756Z,16.25
2023-02-03T21:54:04.980Z,14.25
2023-02-03T21:55:12.067Z,17.94
2023-02-03T21:56:22.315Z,15.63
2023-02-03T21:57:37.244Z,14.13
2023-02-03T21:58:48.801Z,13.31
2023-02-03T22:00:48.841Z,17.31
2023-02-03T22:01:10.399Z,19.00
2023-02-03T22:02:36.054Z,18.06
2023-02-03T22:03:42.110Z,16.00
2023-02-03T22:04:56.953Z,13.44
2023-02-03T22:07:05.898Z,19.25
2023-02-03T22:07:30.431Z,18.44
2023-02-03T22:09:08.020Z,15.75
2023-02-03T22:10:07.520Z,16.87
2023-02-03T22:11:33.916Z,15.75
2023-02-03T22:12:29.997Z,15.44
2023-02-03T22:13:59.589Z,19.94
2023-02-03T22:14:49.060Z,13.69
2023-02-03T22:15:54.503Z,18.25
2023-02-03T22:17:01.119Z,18.75
2023-02-03T22:19:35.862Z,25.25
2023-02-03T22:20:36.842Z,17.25
2023-02-03T22:21:44.458Z,14.69
2023-02-03T22:22:49.659Z,22.25
2023-02-03T22:23:55.361Z,19.19
2023-02-03T22:24:45.079Z,17.37
2023-02-03T22:25:04.892Z,16.75
2023-02-03T22:26:14.996Z,14.69
2023-02-03T22:27:24.731Z,18.75
2023-02-03T22:28:38.040Z,18.12
2023-02-03T22:30:03.199Z,20.00
2023-02-03T22:31:03.162Z,17.19
2023-02-03T22:32:20.691Z,16.81
2023-02-03T22:33:29.893Z,18.81
2023-02-03T22:34:44.029Z,17.62
2023-02-03T22:35:52.173Z,18.31
2023-02-03T22:36:58.446Z,15.31
2023-02-03T22:38:09.841Z,17.31
2023-02-03T22:39:27.018Z,20.37
2023-02-03T22:40:26.514Z,19.25
2023-02-03T22:41:38.976Z,21.19
2023-02-03T22:42:39.509Z,24.56
2023-02-03T22:43:57.410Z,18.31
2023-02-03T22:45:01.046Z,21.53
2023-02-03T22:46:06.960Z,18.81
2023-02-03T22:47:10.999Z,22.19
2023-02-03T22:48:25.821Z,22.62
2023-02-03T22:49:20.490Z,24.56
2023-02-03T22:50:35.462Z,20.12
2023-02-03T22:51:33.658Z,21.31
2023-02-03T22:52:37.675Z,23.31
2023-02-03T22:53:43.559Z,23.00
2023-02-03T22:54:48.774Z,22.37
2023-02-03T22:55:57.093Z,23.69
2023-02-03T22:57:02.815Z,20.69
2023-02-03T23:16:50.582Z,19.00
2023-02-03T23:17:57.891Z,19.81
2023-02-03T23:19:06.730Z,17.87
2023-02-03T23:20:16.183Z,16.13
2023-02-03T23:21:21.912Z,15.63
2023-02-03T23:25:31.665Z,17.75
2023-02-03T23:26:38.847Z,13.56
2023-02-03T23:27:48.693Z,16.75
2023-02-03T23:29:50.545Z,15.19
2023-02-03T23:30:12.292Z,14.50
2023-02-03T23:31:31.719Z,15.13
2023-02-03T23:32:39.156Z,19.19
2023-02-03T23:33:42.728Z,18.44
2023-02-03T23:35:06.049Z,16.12
2023-02-03T23:37:26.576Z,16.12
2023-02-03T23:38:30.922Z,13.50
2023-02-03T23:39:35.028Z,13.81
2023-02-03T23:40:44.568Z,15.38
2023-02-03T23:43:17.177Z,14.87
2023-02-03T23:45:40.446Z,16.62
2023-02-03T23:46:51.136Z,13.81
2023-02-03T23:48:00.213Z,16.69
2023-02-03T23:49:10.766Z,11.75
2023-02-03T23:50:23.540Z,13.38
2023-02-03T23:51:38.130Z,12.50
2023-02-03T23:52:44.659Z,14.00
